Bratsk, Russia

11:21 PM IRKT on May 23, 2015 (GMT +0800)
Bratsk | | Change Station
CLOSE
Current Station
Airport
Location: Bratsk,
Elevation: 1608 ft
Nearby Weather Stations

Elev 1608 ft 56.37 °N, 101.70 °E | Updated 21 minutes ago

Scattered Clouds
Scattered Clouds
48 °F
Feels Like 48 °F
N
2
Wind Variable Wind from South

Today
High -- | Low -- °F
--% Chance of Precip.
Yesterday
High -- | Low -- °F
Precip. -- in
4:45 AM 9:35 PM
Waxing Crescent, 30% visible
Pressure 29.68 in
Visibility -9999.0 miles
Clouds Scattered Clouds 3000 ft
Dew Point 46 °F
Humidity 93%
Rainfall 0.00 in
Snow Depth Not available.
UV 0 out of 12
Pollen Not available.
Air Quality Not available.
Flu Activity Not available.
METAR UIBB 231500Z 17001MPS P5000 SCT030CB 09/08 Q1005 R30/CLRD60 NOSIG RMK QFE711/0948

More Conditions Fewer Conditions

Pressure 29.68 in
Visibility -9999.0 miles
Clouds Scattered Clouds 3000 ft
Dew Point 46 °F
Humidity 93%
Rainfall 0.00 in
Snow Depth Not available.
UV 0 out of 12
Pollen Not available.
Air Quality Not available.
Flu Activity Not available.
METAR UIBB 231500Z 17001MPS P5000 SCT030CB 09/08 Q1005 R30/CLRD60 NOSIG RMK QFE711/0948

More Conditions Fewer Conditions

10-Day Weather Forecast

Almanac

Astronomy

May. 23, 2015 Rise Set
Actual Time
Civil Twilight
Nautical Twilight
Astronomical Twilight
Moon
Length of Visible Light
Length of Day
Tomorrow will be .
, % of the Moon is Illuminated

Today's Extremes

Country Highs Country Lows

Community

WunderPhotos

Upload Photos

1,823,492 photos uploaded!

WunderBlogs® & News

Nearby

Air Quality

  Air Quality AQ Index Pollutant
Not available.

Snow Depth

Station Depth Elevation

Earthquake Activity

City Distance Mag. Time & Date
Minimum magnitude displayed is 2.5.

Coastal Water Temperatures

Place Temperature

Stations

Nearby Weather Stations

Station Location Temp. Windchill Dew Point Humidity Wind Precip. Elev Updated Type